Time;durP1;ratioP1;P1;durP2;ratioP2;P2;SDS_P1;SDS_P2;PMS_P1;PMS_P2;Temp;Humidity;BMP_temperature;BMP_pressure;BME280_temperature;BME280_humidity;BME280_pressure;Samples;Min_cycle;Max_cycle;Signal;HPM_P1;HPM_P2
2022/10/28 00:00:31;;;;;;;0.47;0.47;;;;;;;15.34;68.62;97635.63;29396;228;63004;-60
2022/10/28 00:01:13;;;;;;;0.50;0.50;;;;;;;15.34;68.45;97630.16;29396;236;63014;-59
2022/10/28 00:01:44;;;;;;;0.50;0.50;;;;;;;15.30;68.21;97631.88;29395;220;64009;-58
2022/10/28 00:02:19;;;;;;;0.50;0.50;;;;;;;15.29;68.51;97632.97;29396;292;63009;-59
2022/10/28 00:02:50;;;;;;;0.50;0.50;;;;;;;15.27;68.64;97634.41;29396;197;63005;-58
2022/10/28 00:03:21;;;;;;;0.40;0.40;;;;;;;15.25;68.54;97637.44;29396;230;63009;-58
2022/10/28 00:03:59;;;;;;;0.47;0.47;;;;;;;15.23;69.04;97633.41;29396;203;63005;-57
2022/10/28 00:04:30;;;;;;;0.50;0.50;;;;;;;15.25;69.01;97626.50;29395;215;64013;-60
2022/10/28 00:05:01;;;;;;;0.50;0.50;;;;;;;15.24;68.86;97624.91;29396;230;63005;-60
2022/10/28 00:05:33;;;;;;;0.68;0.68;;;;;;;15.26;68.76;97628.13;29396;218;63009;-59
2022/10/28 00:06:08;;;;;;;0.40;0.40;;;;;;;15.28;68.85;97627.81;29396;223;63004;-58
2022/10/28 00:06:39;;;;;;;0.43;0.43;;;;;;;15.26;68.69;97628.13;29396;222;63009;-59
2022/10/28 00:07:11;;;;;;;0.50;0.50;;;;;;;15.28;68.66;97631.37;29396;267;63009;-58
2022/10/28 00:07:42;;;;;;;0.50;0.50;;;;;;;15.27;68.85;97618.81;29396;222;63016;-58
2022/10/28 00:08:13;;;;;;;0.45;0.45;;;;;;;15.26;68.70;97628.13;29396;227;63004;-58
2022/10/28 00:08:44;;;;;;;0.50;0.50;;;;;;;15.24;68.90;97627.66;29395;332;64013;-59
2022/10/28 00:09:16;;;;;;;0.40;0.40;;;;;;;15.19;69.01;97627.75;29396;211;63005;-58
2022/10/28 00:09:47;;;;;;;0.50;0.50;;;;;;;15.24;68.83;97629.56;29396;211;63009;-59
2022/10/28 00:10:18;;;;;;;0.50;0.50;;;;;;;15.21;69.03;97636.47;29396;209;63005;-57
2022/10/28 00:10:53;;;;;;;0.50;0.50;;;;;;;15.20;68.80;97640.31;29396;250;63009;-58
2022/10/28 00:11:28;;;;;;;0.50;0.50;;;;;;;15.19;69.28;97644.16;29396;232;63005;-58
2022/10/28 00:11:59;;;;;;;0.47;0.47;;;;;;;15.16;69.18;97639.28;29395;221;64013;-58
2022/10/28 00:12:35;;;;;;;0.40;0.40;;;;;;;15.16;69.33;97644.75;29396;212;63005;-57
2022/10/28 00:13:06;;;;;;;0.50;0.50;;;;;;;15.13;69.11;97648.09;29396;197;63009;-58
2022/10/28 00:13:38;;;;;;;0.40;0.40;;;;;;;15.12;69.62;97638.28;29395;215;64009;-58
2022/10/28 00:14:10;;;;;;;0.50;0.50;;;;;;;15.12;69.57;97642.94;29396;218;63009;-58
2022/10/28 00:14:44;;;;;;;0.50;0.50;;;;;;;15.13;69.54;97641.81;29396;221;63004;-58
2022/10/28 00:15:16;;;;;;;0.50;0.50;;;;;;;15.12;69.49;97638.28;29396;210;63009;-69
2022/10/28 00:15:47;;;;;;;0.43;0.43;;;;;;;15.13;69.83;97639.91;29396;216;63004;-57
2022/10/28 00:16:21;;;;;;;0.50;0.50;;;;;;;15.13;69.66;97641.81;29396;233;63008;-59
2022/10/28 00:16:53;;;;;;;0.40;0.40;;;;;;;15.12;69.87;97638.28;29397;218;63005;-58
2022/10/28 00:17:25;;;;;;;0.40;0.40;;;;;;;15.11;69.59;97639.38;29397;365;63009;-59
2022/10/28 00:17:56;;;;;;;0.40;0.40;;;;;;;15.12;69.56;97638.28;29396;273;64009;-58
2022/10/28 00:18:29;;;;;;;0.50;0.50;;;;;;;15.12;69.80;97635.53;29397;214;63009;-57
2022/10/28 00:19:02;;;;;;;0.40;0.40;;;;;;;15.12;69.65;97632.81;29397;236;63011;-57
2022/10/28 00:19:33;;;;;;;0.50;0.50;;;;;;;15.07;69.47;97630.16;29396;233;63009;-58
2022/10/28 00:20:06;;;;;;;0.50;0.50;;;;;;;15.11;69.88;97630.37;29397;284;63012;-58
2022/10/28 00:20:37;;;;;;;0.50;0.50;;;;;;;15.10;69.76;97632.28;29397;196;63009;-57
2022/10/28 00:21:15;;;;;;;0.43;0.43;;;;;;;15.08;70.07;97631.78;29397;240;63004;-59
2022/10/28 00:21:47;;;;;;;0.43;0.43;;;;;;;15.06;69.88;97632.09;29396;224;64013;-57
2022/10/28 00:22:18;;;;;;;0.50;0.50;;;;;;;15.05;70.10;97635.12;29397;211;63004;-59
2022/10/28 00:22:51;;;;;;;0.47;0.47;;;;;;;15.06;70.00;97628.56;29397;239;63009;-61
2022/10/28 00:23:22;;;;;;;0.50;0.50;;;;;;;15.05;70.35;97632.41;29397;253;63004;-58
2022/10/28 00:23:54;;;;;;;0.50;0.50;;;;;;;15.05;69.80;97624.19;29397;216;63008;-59
2022/10/28 00:24:25;;;;;;;0.50;0.50;;;;;;;15.09;70.04;97617.00;29397;242;63005;-60
2022/10/28 00:24:56;;;;;;;0.40;0.40;;;;;;;15.15;69.76;97626.72;29397;372;63009;-59
2022/10/28 00:25:28;;;;;;;0.50;0.50;;;;;;;15.19;69.73;97627.75;29397;216;63008;-60
2022/10/28 00:26:10;;;;;;;0.50;0.50;;;;;;;15.22;69.35;97631.78;29397;208;63009;-57
2022/10/28 00:26:43;;;;;;;0.43;0.43;;;;;;;15.20;69.38;97628.56;29397;202;63005;-58
2022/10/28 00:27:14;;;;;;;0.50;0.50;;;;;;;15.18;69.64;97626.12;29396;252;64013;-59
2022/10/28 00:27:45;;;;;;;0.50;0.50;;;;;;;15.17;69.83;97629.16;29397;225;63005;-57
2022/10/28 00:28:21;;;;;;;0.50;0.50;;;;;;;15.14;70.08;97625.13;29397;209;63009;-72
2022/10/28 00:28:58;;;;;;;0.50;0.50;;;;;;;15.11;69.96;97625.72;29397;198;63004;-57
2022/10/28 00:29:31;;;;;;;0.40;0.40;;;;;;;15.09;69.91;97623.28;29396;286;63009;-58
2022/10/28 00:30:04;;;;;;;0.43;0.43;;;;;;;15.08;70.00;97627.12;29396;367;63004;-58
2022/10/28 00:30:35;;;;;;;0.50;0.50;;;;;;;15.09;69.96;97627.94;29396;210;63009;-59
2022/10/28 00:31:08;;;;;;;0.40;0.40;;;;;;;15.08;70.45;97631.78;29396;202;63004;-58
2022/10/28 00:31:40;;;;;;;0.40;0.40;;;;;;;15.09;70.01;97622.47;29396;215;63009;-58
2022/10/28 00:32:12;;;;;;;0.47;0.47;;;;;;;15.08;69.83;97627.12;29396;218;63005;-57
2022/10/28 00:32:43;;;;;;;0.50;0.50;;;;;;;15.10;70.15;97629.56;29395;207;64014;-59
2022/10/28 00:33:14;;;;;;;0.40;0.40;;;;;;;15.10;70.28;97624.09;29396;225;63005;-57
2022/10/28 00:33:46;;;;;;;0.50;0.50;;;;;;;15.09;70.36;97625.22;29397;267;63009;-57
2022/10/28 00:34:22;;;;;;;0.50;0.50;;;;;;;15.07;70.23;97630.16;29396;198;63005;-58
2022/10/28 00:34:53;;;;;;;0.45;0.45;;;;;;;15.06;70.66;97625.81;29396;222;63009;-59
2022/10/28 00:35:25;;;;;;;0.50;0.50;;;;;;;15.04;70.50;97626.12;29396;241;63008;-58
2022/10/28 00:36:18;;;;;;;0.50;0.50;;;;;;;15.04;70.33;97620.66;29395;222;64009;-57
2022/10/28 00:36:49;;;;;;;0.40;0.40;;;;;;;15.09;70.60;97617.00;29396;264;63004;-59
2022/10/28 00:37:21;;;;;;;0.40;0.40;;;;;;;15.10;70.26;97629.56;29396;205;63009;-58
2022/10/28 00:37:52;;;;;;;0.40;0.40;;;;;;;15.10;70.20;97624.09;29395;235;64009;-58
2022/10/28 00:38:24;;;;;;;0.50;0.50;;;;;;;15.09;70.21;97628.75;29396;236;63008;-58
2022/10/28 00:38:56;;;;;;;0.50;0.50;;;;;;;15.09;70.28;97628.75;29396;203;63004;-57
2022/10/28 00:39:28;;;;;;;0.40;0.40;;;;;;;15.10;70.18;97629.56;29395;209;64014;-58
2022/10/28 00:39:59;;;;;;;0.47;0.47;;;;;;;15.12;70.32;97632.81;29396;202;63005;-58
2022/10/28 00:40:34;;;;;;;0.40;0.40;;;;;;;15.12;70.14;97621.06;29396;287;63009;-57
2022/10/28 00:41:06;;;;;;;0.50;0.50;;;;;;;15.14;70.49;97630.59;29396;236;63005;-59
2022/10/28 00:41:41;;;;;;;0.50;0.50;;;;;;;15.15;69.91;97625.94;29396;205;63016;-59
2022/10/28 00:42:17;;;;;;;0.50;0.50;;;;;;;15.15;70.11;97629.47;29395;198;64009;-59
2022/10/28 00:42:48;;;;;;;0.40;0.40;;;;;;;15.16;69.98;97625.63;29396;317;63009;-58
2022/10/28 00:43:33;;;;;;;0.50;0.50;;;;;;;15.16;70.20;97630.28;29396;199;63004;-58
2022/10/28 00:44:41;;;;;;;0.50;0.50;;;;;;;15.16;70.13;97628.34;29396;224;63009;-58
2022/10/28 00:45:12;;;;;;;0.50;0.50;;;;;;;15.15;69.70;97629.47;29395;220;64002;-59
2022/10/28 00:46:52;;;;;;;0.47;0.47;;;;;;;15.11;70.09;97622.97;88174;209;64004;-58
2022/10/28 00:48:01;;;;;;;0.50;0.50;;;;;;;15.09;70.09;97622.47;29394;370;64002;-72
2022/10/28 00:48:33;;;;;;;0.50;0.50;;;;;;;15.09;69.97;97622.47;29395;229;63005;-58
2022/10/28 00:49:29;;;;;;;0.40;0.40;;;;;;;15.07;69.79;97630.16;29395;214;63009;-58
2022/10/28 00:50:28;;;;;;;0.40;0.40;;;;;;;15.05;70.00;97621.47;29395;225;63004;-58
2022/10/28 00:50:59;;;;;;;0.50;0.50;;;;;;;15.03;70.31;97623.69;29394;215;64013;-57
2022/10/28 00:51:34;;;;;;;0.50;0.50;;;;;;;15.02;70.37;97633.00;29395;202;63004;-58
2022/10/28 00:52:12;;;;;;;0.40;0.40;;;;;;;15.00;70.09;97630.56;29394;386;64006;-57
2022/10/28 00:52:48;;;;;;;0.50;0.50;;;;;;;14.98;70.46;97629.25;29395;226;63005;-58
2022/10/28 00:53:28;;;;;;;0.50;0.50;;;;;;;14.95;70.72;97632.59;29395;205;63009;-58
2022/10/28 00:54:01;;;;;;;0.50;0.50;;;;;;;14.93;70.83;97632.06;29417;230;63005;-58
2022/10/28 00:54:33;;;;;;;0.50;0.50;;;;;;;14.89;70.80;97629.16;29395;228;63013;-58
2022/10/28 00:55:06;;;;;;;0.50;0.50;;;;;;;14.88;71.16;97626.72;29395;219;63005;-58
2022/10/28 00:55:38;;;;;;;0.45;0.45;;;;;;;14.86;71.18;97623.50;29395;224;63009;-59
2022/10/28 00:56:11;;;;;;;0.43;0.43;;;;;;;14.88;70.80;97630.28;29394;237;64009;-59
2022/10/28 00:56:47;;;;;;;0.50;0.50;;;;;;;14.85;70.94;97627.34;29395;248;63009;-58
2022/10/28 00:57:24;;;;;;;0.50;0.50;;;;;;;14.83;71.23;97624.91;29395;235;63004;-60
2022/10/28 00:57:58;;;;;;;0.47;0.47;;;;;;;14.85;70.98;97627.34;29395;212;63008;-60
2022/10/28 00:58:30;;;;;;;0.50;0.50;;;;;;;14.85;71.12;97621.88;29395;202;63004;-59
2022/10/28 00:59:07;;;;;;;0.43;0.43;;;;;;;14.83;71.04;97624.91;29395;199;63008;-58
2022/10/28 00:59:44;;;;;;;0.50;0.50;;;;;;;14.80;71.17;97630.16;29395;218;63019;-58
2022/10/28 01:00:16;;;;;;;0.50;0.50;;;;;;;14.76;71.19;97624.50;29395;204;63020;-60
2022/10/28 01:00:47;;;;;;;0.50;0.50;;;;;;;14.71;72.02;97621.84;29395;218;63005;-58
2022/10/28 01:01:18;;;;;;;0.50;0.50;;;;;;;14.67;72.06;97632.56;29394;227;64013;-58
2022/10/28 01:01:50;;;;;;;0.47;0.47;;;;;;;14.65;72.07;97629.31;29395;230;63005;-58
2022/10/28 01:02:21;;;;;;;0.40;0.40;;;;;;;14.64;71.51;97630.44;29395;213;63009;-58
2022/10/28 01:02:52;;;;;;;0.50;0.50;;;;;;;14.63;71.64;97626.06;29395;227;63005;-57
2022/10/28 01:03:24;;;;;;;0.50;0.50;;;;;;;14.62;72.06;97624.47;29395;207;63016;-58
2022/10/28 01:03:56;;;;;;;0.45;0.45;;;;;;;14.63;72.29;97628.00;29394;206;64009;-58
2022/10/28 01:04:28;;;;;;;0.45;0.45;;;;;;;14.61;72.06;97633.75;29395;251;63009;-70
2022/10/28 01:04:59;;;;;;;0.40;0.40;;;;;;;14.59;72.41;97633.25;29395;205;63004;-58
2022/10/28 01:05:33;;;;;;;0.50;0.50;;;;;;;14.60;71.85;97637.59;29395;348;63008;-58
2022/10/28 01:06:06;;;;;;;0.40;0.40;;;;;;;14.59;72.26;97630.50;29395;263;63004;-59
2022/10/28 01:06:40;;;;;;;0.40;0.40;;;;;;;14.57;72.24;97632.75;29395;258;63014;-58
2022/10/28 01:07:11;;;;;;;0.40;0.40;;;;;;;14.60;72.39;97637.59;29395;229;63011;-58
2022/10/28 01:07:43;;;;;;;0.40;0.40;;;;;;;14.60;72.41;97634.88;29395;368;63009;-57
2022/10/28 01:08:16;;;;;;;0.40;0.40;;;;;;;14.59;72.91;97635.97;29395;210;63005;-58
2022/10/28 01:08:47;;;;;;;0.50;0.50;;;;;;;14.55;72.69;97640.44;29394;198;64013;-57
2022/10/28 01:09:18;;;;;;;0.40;0.40;;;;;;;14.53;72.71;97637.22;29394;313;64009;-58
2022/10/28 01:09:50;;;;;;;0.45;0.45;;;;;;;14.53;72.40;97636.41;29395;224;63009;-60
2022/10/28 01:10:32;;;;;;;0.40;0.40;;;;;;;14.53;72.60;97630.94;29394;222;64009;-59
2022/10/28 01:11:47;;;;;;;0.40;0.40;;;;;;;14.52;72.50;97627.38;29395;232;63009;-57
2022/10/28 01:12:45;;;;;;;0.40;0.40;;;;;;;14.48;72.60;97631.84;29395;220;63004;-57
2022/10/28 01:13:51;;;;;;;0.40;0.40;;;;;;;14.45;73.05;97624.22;29394;344;64013;-57
2022/10/28 01:15:28;;;;;;;0.73;0.73;;;;;;;14.46;73.04;97622.31;29394;366;64009;-58
2022/10/28 01:16:45;;;;;;;0.50;0.50;;;;;;;14.47;72.66;97626.66;29395;297;63009;-57
2022/10/28 01:17:53;;;;;;;0.50;0.50;;;;;;;14.49;73.21;97619.78;29395;239;63005;-59
2022/10/28 01:18:57;;;;;;;0.50;0.50;;;;;;;14.53;72.70;97625.47;29395;237;63009;-58
2022/10/28 01:20:30;;;;;;;0.50;0.50;;;;;;;14.47;73.32;97622.03;29394;208;64009;-57
2022/10/28 01:21:37;;;;;;;0.40;0.40;;;;;;;14.54;73.01;97622.44;29394;310;64013;-58
2022/10/28 01:22:28;;;;;;;0.50;0.50;;;;;;;14.53;72.92;97615.34;29395;205;63009;-58
2022/10/28 01:23:38;;;;;;;0.47;0.47;;;;;;;14.53;72.96;97620.81;29395;303;63005;-58
2022/10/28 01:24:44;;;;;;;0.50;0.50;;;;;;;14.48;72.75;97615.44;29395;207;63005;-60
2022/10/28 01:26:19;;;;;;;0.45;0.45;;;;;;;14.48;72.89;97618.19;29395;284;63009;-58
2022/10/28 01:27:23;;;;;;;0.40;0.40;;;;;;;14.54;72.89;97616.97;29394;208;64009;-57
2022/10/28 01:28:13;;;;;;;0.47;0.47;;;;;;;14.51;72.84;97617.56;29395;207;63009;-58
2022/10/28 01:29:35;;;;;;;0.40;0.40;;;;;;;14.46;73.17;97608.66;29395;244;63008;-60
2022/10/28 01:30:18;;;;;;;0.50;0.50;;;;;;;14.39;73.44;97619.94;29394;310;64014;-58
2022/10/28 01:31:36;;;;;;;0.50;0.50;;;;;;;14.37;73.63;97613.97;29395;214;63005;-58
2022/10/28 01:32:58;;;;;;;0.40;0.40;;;;;;;14.42;73.84;97611.19;29394;341;64009;-59
2022/10/28 01:33:46;;;;;;;0.50;0.50;;;;;;;14.36;73.88;97615.06;29395;241;63004;-59
2022/10/28 01:34:39;;;;;;;0.77;0.77;;;;;;;14.38;73.45;97618.31;29395;327;63023;-59
2022/10/28 01:35:37;;;;;;;0.50;0.50;;;;;;;14.34;73.85;97614.56;29395;283;63004;-57
2022/10/28 01:36:48;;;;;;;0.50;0.50;;;;;;;14.32;73.81;97619.50;29395;206;63008;-57
2022/10/28 01:38:18;;;;;;;0.50;0.50;;;;;;;14.29;74.10;97617.38;29394;219;64009;-59
2022/10/28 01:39:15;;;;;;;0.50;0.50;;;;;;;14.34;73.94;97609.91;29395;207;63014;-60
2022/10/28 01:40:09;;;;;;;0.50;0.50;;;;;;;14.35;73.92;97608.81;29394;209;64009;-58
2022/10/28 01:41:32;;;;;;;0.60;0.60;;;;;;;14.43;73.50;97612.00;29395;319;63009;-59
2022/10/28 01:42:35;;;;;;;0.45;0.45;;;;;;;14.44;73.60;97617.16;29416;197;64009;-59
2022/10/28 01:43:21;;;;;;;0.50;0.50;;;;;;;14.45;73.72;97618.78;29395;341;63009;-58
2022/10/28 01:44:31;;;;;;;0.50;0.50;;;;;;;14.43;73.64;97620.19;29395;245;63004;-58
2022/10/28 01:45:19;;;;;;;0.50;0.50;;;;;;;14.40;73.96;97624.28;29395;227;63012;-58
2022/10/28 01:46:08;;;;;;;0.50;0.50;;;;;;;14.41;73.82;97617.75;29395;266;63010;-59
2022/10/28 01:46:59;;;;;;;0.50;0.50;;;;;;;14.40;73.84;97621.56;29395;197;63018;-58
2022/10/28 01:47:59;;;;;;;0.50;0.50;;;;;;;14.43;73.74;97615.53;29417;197;63005;-57
2022/10/28 01:48:50;;;;;;;0.50;0.50;;;;;;;14.44;73.76;97627.25;29395;325;63009;-70
2022/10/28 01:49:30;;;;;;;0.45;0.45;;;;;;;14.44;73.80;97616.34;29395;205;63004;-58
2022/10/28 01:50:38;;;;;;;0.50;0.50;;;;;;;14.41;74.07;97617.75;29395;233;63025;-58
2022/10/28 01:51:35;;;;;;;0.50;0.50;;;;;;;14.46;74.13;97614.13;29395;254;63004;-59
2022/10/28 01:52:12;;;;;;;0.50;0.50;;;;;;;14.51;73.98;97614.03;29394;198;64014;-59
2022/10/28 01:52:45;;;;;;;0.50;0.50;;;;;;;14.49;73.71;97614.34;29395;272;63005;-59
2022/10/28 01:53:25;;;;;;;0.45;0.45;;;;;;;14.48;73.53;97614.63;29395;290;63009;-58
2022/10/28 01:54:01;;;;;;;0.50;0.50;;;;;;;14.48;73.94;97611.91;29395;241;63005;-59
2022/10/28 01:54:34;;;;;;;0.43;0.43;;;;;;;14.48;73.53;97612.72;29395;271;63009;-59
2022/10/28 01:55:17;;;;;;;0.50;0.50;;;;;;;14.49;73.64;97617.06;29395;197;63005;-58
2022/10/28 01:55:52;;;;;;;0.40;0.40;;;;;;;14.53;73.55;97609.91;29395;215;63009;-60
2022/10/28 01:56:30;;;;;;;0.40;0.40;;;;;;;14.55;73.45;97606.88;29395;207;63004;-58
2022/10/28 01:57:04;;;;;;;0.40;0.40;;;;;;;14.53;73.11;97609.91;29395;267;63009;-60
2022/10/28 01:57:39;;;;;;;0.50;0.50;;;;;;;14.52;73.03;97611.00;29394;252;64009;-59
2022/10/28 01:58:15;;;;;;;0.50;0.50;;;;;;;14.52;73.64;97613.75;29395;228;63009;-60
2022/10/28 01:58:49;;;;;;;0.40;0.40;;;;;;;14.53;73.44;97604.44;29395;213;63004;-59
2022/10/28 01:59:25;;;;;;;0.50;0.50;;;;;;;14.53;73.09;97604.44;29395;235;63017;-60
2022/10/28 01:59:58;;;;;;;0.40;0.40;;;;;;;14.50;73.54;97605.03;29395;226;63005;-59
2022/10/28 02:00:31;;;;;;;0.50;0.50;;;;;;;14.49;73.59;97597.94;29395;285;63026;-59
2022/10/28 02:01:05;;;;;;;0.40;0.40;;;;;;;14.48;73.66;97612.72;29395;217;63009;-58
2022/10/28 02:01:36;;;;;;;0.40;0.40;;;;;;;14.46;73.72;97609.47;29395;312;63009;-58
2022/10/28 02:02:11;;;;;;;0.50;0.50;;;;;;;14.49;73.68;97608.88;29395;258;63005;-60
2022/10/28 02:02:43;;;;;;;0.50;0.50;;;;;;;14.47;73.69;97611.09;29394;216;64013;-60
2022/10/28 02:03:16;;;;;;;0.50;0.50;;;;;;;14.46;73.69;97614.94;29395;350;63004;-58
2022/10/28 02:03:50;;;;;;;0.40;0.40;;;;;;;14.45;73.74;97613.31;29395;216;63009;-58
2022/10/28 02:04:21;;;;;;;0.50;0.50;;;;;;;14.42;74.14;97603.00;29395;326;63004;-59
2022/10/28 02:05:32;;;;;;;0.40;0.40;;;;;;;14.40;73.70;97603.25;29395;196;63009;-59
2022/10/28 02:06:11;;;;;;;0.50;0.50;;;;;;;14.38;74.07;97610.13;29395;379;63004;-59
2022/10/28 02:06:47;;;;;;;0.50;0.50;;;;;;;14.41;73.78;97607.63;29395;237;63009;-60
2022/10/28 02:07:18;;;;;;;0.50;0.50;;;;;;;14.38;74.08;97610.13;29394;257;63997;-58
2022/10/28 02:07:54;;;;;;;0.50;0.50;;;;;;;14.38;74.10;97612.84;29395;203;63009;-58
2022/10/28 02:09:13;;;;;;;0.40;0.40;;;;;;;14.36;74.41;97609.63;29395;274;63005;-57
2022/10/28 02:10:13;;;;;;;0.50;0.50;;;;;;;14.35;74.14;97619.72;29395;228;63009;-58
2022/10/28 02:11:33;;;;;;;0.50;0.50;;;;;;;14.32;74.34;97614.03;29395;202;63004;-59
2022/10/28 02:12:32;;;;;;;0.50;0.50;;;;;;;14.31;74.45;97604.22;29394;252;64013;-59
2022/10/28 02:13:10;;;;;;;0.47;0.47;;;;;;;14.29;74.81;97599.06;29395;231;63004;-59
2022/10/28 02:14:18;;;;;;;0.50;0.50;;;;;;;14.32;74.34;97603.13;29395;204;63027;-59
2022/10/28 02:15:41;;;;;;;0.50;0.50;;;;;;;14.36;74.16;97604.16;29395;242;63005;-60
2022/10/28 02:16:49;;;;;;;0.50;0.50;;;;;;;14.39;73.99;97609.00;29417;206;63009;-58
2022/10/28 02:17:38;;;;;;;0.50;0.50;;;;;;;14.43;73.98;97601.88;29394;258;64009;-58
2022/10/28 02:18:42;;;;;;;0.40;0.40;;;;;;;14.43;74.16;97601.88;29395;211;63009;-59
2022/10/28 02:20:08;;;;;;;0.65;0.65;;;;;;;14.44;74.22;97606.22;29394;221;64009;-58
2022/10/28 02:21:04;;;;;;;0.50;0.50;;;;;;;14.44;73.65;97595.31;29395;274;63008;-58
2022/10/28 02:22:14;;;;;;;0.50;0.50;;;;;;;14.47;74.16;97600.16;29395;269;63010;-59
2022/10/28 02:23:01;;;;;;;0.50;0.50;;;;;;;14.44;73.90;97595.31;29394;209;64013;-57
2022/10/28 02:23:58;;;;;;;0.50;0.50;;;;;;;14.41;74.17;97593.97;29395;222;63019;-59
2022/10/28 02:24:53;;;;;;;0.45;0.45;;;;;;;14.40;74.03;97594.25;29395;224;63009;-59
2022/10/28 02:25:37;;;;;;;0.50;0.50;;;;;;;14.41;74.37;97593.19;29394;199;64013;-61
2022/10/28 02:26:38;;;;;;;0.50;0.50;;;;;;;14.43;74.08;97590.16;29395;224;63004;-59
2022/10/28 02:27:24;;;;;;;0.40;0.40;;;;;;;14.45;73.72;97596.12;29395;269;63009;-58
2022/10/28 02:28:09;;;;;;;0.50;0.50;;;;;;;14.46;73.60;97593.09;29395;220;63004;-59
2022/10/28 02:28:57;;;;;;;0.50;0.50;;;;;;;14.47;73.52;97596.62;29394;228;64014;-58
2022/10/28 02:29:54;;;;;;;0.50;0.50;;;;;;;14.49;73.35;97587.03;29395;215;63005;-59
2022/10/28 02:31:01;;;;;;;0.50;0.50;;;;;;;14.44;73.48;97589.84;29395;220;63009;-58
2022/10/28 02:31:50;;;;;;;0.50;0.50;;;;;;;14.43;73.97;97593.69;29395;216;63005;-58
2022/10/28 02:32:27;;;;;;;0.50;0.50;;;;;;;14.43;74.34;97590.97;29395;222;63016;-58
2022/10/28 02:33:02;;;;;;;0.50;0.50;;;;;;;14.42;73.73;97592.06;29395;275;63004;-58
2022/10/28 02:33:37;;;;;;;0.50;0.50;;;;;;;14.42;73.98;97594.78;29394;202;64013;-58
2022/10/28 02:34:19;;;;;;;0.50;0.50;;;;;;;14.47;73.51;97594.72;29395;223;63004;-70
2022/10/28 02:34:55;;;;;;;0.50;0.50;;;;;;;14.47;73.65;97591.97;29394;210;64013;-58
2022/10/28 02:35:56;;;;;;;0.50;0.50;;;;;;;14.45;73.82;97591.47;29395;202;63004;-58
2022/10/28 02:36:32;;;;;;;0.50;0.50;;;;;;;14.48;73.37;97590.88;29395;234;63009;-58
2022/10/28 02:37:12;;;;;;;0.50;0.50;;;;;;;14.47;73.43;97589.25;29395;211;63005;-57
2022/10/28 02:37:48;;;;;;;0.50;0.50;;;;;;;14.46;73.99;97590.34;29395;277;63009;-58
2022/10/28 02:38:30;;;;;;;0.50;0.50;;;;;;;14.47;73.67;97589.25;29395;207;63005;-60
2022/10/28 02:39:05;;;;;;;0.40;0.40;;;;;;;14.47;73.55;97589.25;29394;219;64013;-59
2022/10/28 02:39:42;;;;;;;0.50;0.50;;;;;;;14.48;73.59;97590.06;29395;216;63005;-59
2022/10/28 02:40:21;;;;;;;0.40;0.40;;;;;;;14.53;73.37;97588.06;29395;224;63009;-58
2022/10/28 02:40:58;;;;;;;0.50;0.50;;;;;;;14.55;73.30;97583.09;29395;350;63004;-58
2022/10/28 02:42:02;;;;;;;0.40;0.40;;;;;;;14.58;73.15;97587.94;29395;241;63013;-59
2022/10/28 02:42:43;;;;;;;0.50;0.50;;;;;;;14.63;73.05;97576.91;29395;212;63004;-58
2022/10/28 02:43:16;;;;;;;0.50;0.50;;;;;;;14.67;72.83;97577.13;29417;237;63008;-58
2022/10/28 02:43:52;;;;;;;0.60;0.60;;;;;;;14.67;72.39;97583.41;29395;210;63009;-61
2022/10/28 02:44:33;;;;;;;0.50;0.50;;;;;;;14.69;72.64;97585.81;29394;237;64014;-60
2022/10/28 02:45:14;;;;;;;0.43;0.43;;;;;;;14.70;72.95;97576.53;29416;332;64009;-57
2022/10/28 02:45:53;;;;;;;0.50;0.50;;;;;;;14.69;73.01;97575.72;29417;284;63009;-60
2022/10/28 02:46:27;;;;;;;0.50;0.50;;;;;;;14.65;72.81;97580.16;29395;308;63005;-58
2022/10/28 02:47:05;;;;;;;0.40;0.40;;;;;;;14.64;72.85;97573.06;29395;225;63009;-60
2022/10/28 02:47:41;;;;;;;0.50;0.50;;;;;;;14.62;73.06;97583.50;29394;241;64005;-58
2022/10/28 02:48:22;;;;;;;0.50;0.50;;;;;;;14.62;72.92;97578.03;29395;232;63009;-58
2022/10/28 02:49:13;;;;;;;0.50;0.50;;;;;;;14.62;73.02;97572.56;29416;222;64009;-60
2022/10/28 02:49:51;;;;;;;0.50;0.50;;;;;;;14.60;73.03;97574.78;29417;273;63009;-59
2022/10/28 02:50:31;;;;;;;0.50;0.50;;;;;;;14.57;73.25;97580.84;29394;281;64008;-58
2022/10/28 02:51:10;;;;;;;0.50;0.50;;;;;;;14.53;73.13;97579.06;29439;205;63015;-57
2022/10/28 02:51:59;;;;;;;0.50;0.50;;;;;;;14.50;73.37;97582.38;29395;203;63005;-59
2022/10/28 02:52:33;;;;;;;0.50;0.50;;;;;;;14.46;73.41;97575.91;29395;308;63009;-57
2022/10/28 02:53:18;;;;;;;0.50;0.50;;;;;;;14.44;73.88;97583.56;29395;203;63005;-58
2022/10/28 02:54:08;;;;;;;0.45;0.45;;;;;;;14.41;74.09;97593.19;29395;234;63009;-58
2022/10/28 02:54:48;;;;;;;0.50;0.50;;;;;;;14.39;73.89;97587.97;29394;198;64009;-58
2022/10/28 02:55:23;;;;;;;0.47;0.47;;;;;;;14.38;74.23;97586.38;29395;202;63009;-58
2022/10/28 02:55:58;;;;;;;0.50;0.50;;;;;;;14.38;73.86;97591.00;29395;247;63004;-58
2022/10/28 02:56:35;;;;;;;0.40;0.40;;;;;;;14.36;74.21;97594.03;29395;311;63009;-58
2022/10/28 02:57:12;;;;;;;0.45;0.45;;;;;;;14.37;74.04;97592.13;29394;233;64009;-58
2022/10/28 02:57:48;;;;;;;0.40;0.40;;;;;;;14.35;74.19;97591.63;29395;202;63009;-58
2022/10/28 02:58:20;;;;;;;0.50;0.50;;;;;;;14.37;73.83;97592.13;29395;196;63015;-60
2022/10/28 02:58:52;;;;;;;0.50;0.50;;;;;;;14.38;74.27;97585.56;29395;327;63026;-59
2022/10/28 02:59:24;;;;;;;0.40;0.40;;;;;;;14.38;73.95;97591.00;29395;356;63005;-57
2022/10/28 03:00:18;;;;;;;0.40;0.40;;;;;;;14.39;74.02;97589.91;29395;329;63009;-58
2022/10/28 03:00:53;;;;;;;0.45;0.45;;;;;;;14.37;74.03;97586.66;29395;207;63005;-58
2022/10/28 03:01:24;;;;;;;0.43;0.43;;;;;;;14.36;74.25;97587.78;29395;197;63009;-57
2022/10/28 03:01:56;;;;;;;0.40;0.40;;;;;;;14.35;74.36;97586.16;29394;207;64002;-57
2022/10/28 03:02:28;;;;;;;0.50;0.50;;;;;;;14.35;74.22;97591.63;29395;212;63009;-58
2022/10/28 03:02:59;;;;;;;0.50;0.50;;;;;;;14.34;74.29;97590.81;29395;225;63004;-57
2022/10/28 03:03:31;;;;;;;0.50;0.50;;;;;;;14.34;74.33;97587.25;29395;223;63009;-58
2022/10/28 03:04:03;;;;;;;0.50;0.50;;;;;;;14.35;74.10;97586.16;29395;207;63009;-57
2022/10/28 03:04:35;;;;;;;0.45;0.45;;;;;;;14.34;74.16;97588.06;29395;204;63009;-57
2022/10/28 03:05:07;;;;;;;0.40;0.40;;;;;;;14.33;74.50;97589.19;29395;202;63004;-58
2022/10/28 03:05:38;;;;;;;0.50;0.50;;;;;;;14.34;74.39;97588.06;29395;241;63008;-59
2022/10/28 03:06:10;;;;;;;0.40;0.40;;;;;;;14.34;74.50;97590.00;29395;366;63004;-57
2022/10/28 03:06:41;;;;;;;0.40;0.40;;;;;;;14.34;74.36;97596.25;29395;283;63009;-57
2022/10/28 03:07:14;;;;;;;0.50;0.50;;;;;;;14.35;74.39;97586.97;29394;218;64009;-59
2022/10/28 03:07:45;;;;;;;0.40;0.40;;;;;;;14.36;74.18;97587.78;29394;209;64014;-58
2022/10/28 03:08:17;;;;;;;0.50;0.50;;;;;;;14.36;74.24;97587.78;29395;306;63005;-57
2022/10/28 03:08:48;;;;;;;0.50;0.50;;;;;;;14.39;74.10;97587.16;29395;325;63009;-58
2022/10/28 03:09:20;;;;;;;0.50;0.50;;;;;;;14.39;73.98;97598.91;29395;214;63005;-58
2022/10/28 03:09:51;;;;;;;0.43;0.43;;;;;;;14.42;74.24;97586.59;29395;202;63009;-57
2022/10/28 03:10:22;;;;;;;0.43;0.43;;;;;;;14.44;73.71;97589.84;29395;287;63007;-57
2022/10/28 03:10:53;;;;;;;0.50;0.50;;;;;;;14.45;73.45;97586.00;29395;291;63009;-59
2022/10/28 03:11:25;;;;;;;0.45;0.45;;;;;;;14.47;73.38;97582.97;29395;212;63004;-57
2022/10/28 03:11:56;;;;;;;0.47;0.47;;;;;;;14.47;73.31;97578.31;29395;281;63013;-58
2022/10/28 03:12:27;;;;;;;0.50;0.50;;;;;;;14.47;73.63;97577.50;29395;202;63004;-58
2022/10/28 03:12:59;;;;;;;0.50;0.50;;;;;;;14.51;73.09;97579.34;29394;250;64013;-58
2022/10/28 03:13:30;;;;;;;0.50;0.50;;;;;;;14.52;72.92;97580.97;29395;238;63004;-58
2022/10/28 03:14:02;;;;;;;0.43;0.43;;;;;;;14.54;72.72;97578.75;29394;210;64005;-71
2022/10/28 03:14:33;;;;;;;0.50;0.50;;;;;;;14.57;72.95;97589.03;29395;263;63005;-60
2022/10/28 03:15:06;;;;;;;0.50;0.50;;;;;;;14.62;72.47;97583.50;29395;205;63020;-58
2022/10/28 03:15:37;;;;;;;0.50;0.50;;;;;;;14.63;72.48;97584.28;29395;286;63005;-57
2022/10/28 03:16:08;;;;;;;0.50;0.50;;;;;;;14.63;72.54;97581.56;29395;224;63009;-59
2022/10/28 03:16:39;;;;;;;0.50;0.50;;;;;;;14.66;72.19;97592.69;29395;244;63005;-57
2022/10/28 03:17:11;;;;;;;0.50;0.50;;;;;;;14.66;72.24;97586.44;29395;217;63009;-57